createdAt,value
2023-01-23T00:01:37.208Z,101477.78
2023-01-23T00:04:05.888Z,101479.12
2023-01-23T00:06:34.031Z,101480.13
2023-01-23T00:09:01.754Z,101487.72
2023-01-23T00:11:31.048Z,101480.94
2023-01-23T00:14:00.157Z,101480.72
2023-01-23T00:16:30.001Z,101486.91
2023-01-23T00:18:58.963Z,101486.31
2023-01-23T00:21:28.856Z,101478.38
2023-01-23T00:23:58.436Z,101476.97
2023-01-23T00:26:28.810Z,101489.09
2023-01-23T00:28:56.926Z,101493.69
2023-01-23T00:31:27.471Z,101488.91
2023-01-23T00:33:58.707Z,101490.31
2023-01-23T00:36:32.814Z,101495.28
2023-01-23T00:39:00.978Z,101499.62
2023-01-23T00:41:28.805Z,101496.06
2023-01-23T00:43:56.473Z,101494.87
2023-01-23T00:46:24.885Z,101492.28
2023-01-23T00:48:52.704Z,101506.41
2023-01-23T00:51:20.486Z,101504.63
2023-01-23T00:53:49.197Z,101510.19
2023-01-23T00:56:16.971Z,101511.56
2023-01-23T00:58:45.398Z,101513.38
2023-01-23T01:01:15.447Z,101525.50
2023-01-23T01:03:44.591Z,101513.38
2023-01-23T01:06:12.897Z,101514.16
2023-01-23T01:08:41.186Z,101509.38
2023-01-23T01:11:08.879Z,101524.31
2023-01-23T01:13:37.007Z,101522.72
2023-01-23T01:16:05.487Z,101523.28
2023-01-23T01:18:33.727Z,101522.91
2023-01-23T01:21:01.444Z,101525.09
2023-01-23T01:23:29.463Z,101519.69
2023-01-23T01:26:01.216Z,101522.28
2023-01-23T01:28:33.231Z,101517.31
2023-01-23T01:31:08.753Z,101521.53
2023-01-23T01:33:38.943Z,101525.13
2023-01-23T01:36:11.466Z,101529.72
2023-01-23T01:38:39.962Z,101530.69
2023-01-23T01:41:09.242Z,101525.94
2023-01-23T01:43:37.310Z,101521.16
2023-01-23T01:46:14.412Z,101531.87
2023-01-23T01:48:57.203Z,101527.69
2023-01-23T01:51:31.199Z,101530.28
2023-01-23T01:54:02.287Z,101531.28
2023-01-23T01:56:34.591Z,101525.53
2023-01-23T01:59:05.833Z,101518.34
2023-01-23T02:01:34.809Z,101525.13
2023-01-23T02:04:04.316Z,101531.50
2023-01-23T02:06:32.409Z,101517.94
2023-01-23T02:09:24.123Z,101530.69
2023-01-23T02:11:52.339Z,101522.53
2023-01-23T02:14:20.977Z,101530.66
2023-01-23T02:16:50.544Z,101521.94
2023-01-23T02:19:40.699Z,101527.47
2023-01-23T02:22:38.451Z,101524.84
2023-01-23T02:25:18.202Z,101521.31
2023-01-23T02:27:46.354Z,101518.91
2023-01-23T02:30:16.066Z,101527.25
2023-01-23T02:32:44.055Z,101521.69
2023-01-23T02:35:28.083Z,101522.66
2023-01-23T02:38:03.236Z,101528.22
2023-01-23T02:40:37.229Z,101527.44
2023-01-23T02:43:07.547Z,101523.25
2023-01-23T02:45:36.242Z,101530.59
2023-01-23T02:48:06.161Z,101529.16
2023-01-23T02:50:34.412Z,101525.44
2023-01-23T02:53:02.772Z,101524.56
2023-01-23T02:55:31.700Z,101513.69
2023-01-23T02:58:20.551Z,101516.25
2023-01-23T03:00:49.578Z,101516.25
2023-01-23T03:03:17.313Z,101512.69
2023-01-23T03:05:46.692Z,101517.66
2023-01-23T03:08:14.828Z,101515.88
2023-01-23T03:10:43.162Z,101502.34
2023-01-23T03:13:12.144Z,101506.91
2023-01-23T03:15:42.195Z,101507.53
2023-01-23T03:18:09.962Z,101505.56
2023-01-23T03:20:41.803Z,101498.59
2023-01-23T03:23:09.796Z,101491.03
2023-01-23T03:25:37.427Z,101494.03
2023-01-23T03:28:25.439Z,101486.66
2023-01-23T03:30:53.468Z,101493.19
2023-01-23T03:33:21.200Z,101484.87
2023-01-23T03:35:50.066Z,101490.06
2023-01-23T03:38:19.370Z,101494.63
2023-01-23T03:41:09.091Z,101490.03
2023-01-23T03:43:37.139Z,101490.47
2023-01-23T03:46:05.914Z,101491.22
2023-01-23T03:48:33.821Z,101502.75
2023-01-23T03:51:02.101Z,101499.13
2023-01-23T03:53:31.845Z,101507.13
2023-01-23T03:56:00.936Z,101507.53
2023-01-23T03:58:30.843Z,101511.28
2023-01-23T04:00:58.555Z,101506.75
2023-01-23T04:03:27.977Z,101510.50
2023-01-23T04:05:57.684Z,101512.13
2023-01-23T04:08:25.880Z,101507.16
2023-01-23T04:11:01.939Z,101506.94
2023-01-23T04:13:29.765Z,101507.75
2023-01-23T04:15:59.439Z,101504.37
2023-01-23T04:18:28.210Z,101510.31
2023-01-23T04:20:56.328Z,101505.56
2023-01-23T04:23:25.939Z,101508.31
2023-01-23T04:25:54.699Z,101504.75
2023-01-23T04:28:22.909Z,101504.94
2023-01-23T04:30:52.092Z,101512.31
2023-01-23T04:33:21.013Z,101509.50
2023-01-23T04:35:58.274Z,101517.06
2023-01-23T04:38:29.050Z,101508.75
2023-01-23T04:40:57.137Z,101515.25
2023-01-23T04:43:25.407Z,101506.50
2023-01-23T04:45:55.256Z,101503.75
2023-01-23T04:48:25.906Z,101507.13
2023-01-23T04:50:54.511Z,101505.13
2023-01-23T04:53:22.266Z,101515.06
2023-01-23T04:55:50.218Z,101515.47
2023-01-23T04:58:19.961Z,101520.66
2023-01-23T05:00:48.298Z,101523.88
2023-01-23T05:03:17.483Z,101523.22
2023-01-23T05:05:47.914Z,101523.03
2023-01-23T05:08:15.727Z,101520.66
2023-01-23T05:10:45.803Z,101523.62
2023-01-23T05:13:14.543Z,101524.00
2023-01-23T05:15:42.352Z,101529.75
2023-01-23T05:18:10.667Z,101531.38
2023-01-23T05:20:39.059Z,101538.13
2023-01-23T05:23:06.739Z,101550.62
2023-01-23T05:25:34.869Z,101561.41
2023-01-23T05:28:02.845Z,101554.63
2023-01-23T05:30:31.519Z,101549.56
2023-01-23T05:33:00.713Z,101544.06
2023-01-23T05:35:28.950Z,101547.06
2023-01-23T05:37:56.765Z,101551.22
2023-01-23T05:40:25.648Z,101555.63
2023-01-23T05:42:54.826Z,101556.78
2023-01-23T05:45:24.570Z,101555.56
2023-01-23T05:47:55.339Z,101553.62
2023-01-23T05:50:24.844Z,101556.31
2023-01-23T05:52:53.906Z,101557.75
2023-01-23T05:55:22.279Z,101551.16
2023-01-23T05:57:51.030Z,101561.88
2023-01-23T06:00:21.413Z,101557.75
2023-01-23T06:02:50.281Z,101561.88
2023-01-23T06:05:20.944Z,101554.78
2023-01-23T06:07:51.880Z,101564.72
2023-01-23T06:10:20.215Z,101577.06
2023-01-23T06:12:47.996Z,101580.13
2023-01-23T06:15:15.982Z,101583.53
2023-01-23T06:17:44.625Z,101582.47
2023-01-23T06:20:14.216Z,101581.06
2023-01-23T06:22:42.576Z,101588.25
2023-01-23T06:25:11.166Z,101593.88
2023-01-23T06:27:38.992Z,101595.09
2023-01-23T06:30:08.404Z,101601.84
2023-01-23T06:32:41.079Z,101604.03
2023-01-23T06:35:09.532Z,101597.78
2023-01-23T06:37:37.709Z,101601.84
2023-01-23T06:40:06.476Z,101596.59
2023-01-23T06:42:35.577Z,101611.22
2023-01-23T06:45:03.333Z,101611.34
2023-01-23T06:47:31.609Z,101614.81
2023-01-23T06:50:02.144Z,101615.34
2023-01-23T06:52:31.082Z,101619.22
2023-01-23T06:54:59.074Z,101625.78
2023-01-23T06:57:27.663Z,101628.22
2023-01-23T06:59:55.336Z,101617.75
2023-01-23T07:02:23.428Z,101615.34
2023-01-23T07:04:52.273Z,101613.53
2023-01-23T07:07:20.874Z,101623.56
2023-01-23T07:09:49.324Z,101623.22
2023-01-23T07:12:17.010Z,101612.69
2023-01-23T07:14:45.178Z,101626.41
2023-01-23T07:17:13.421Z,101624.88
2023-01-23T07:19:41.281Z,101622.22
2023-01-23T07:22:09.853Z,101623.41
2023-01-23T07:24:37.829Z,101621.06
2023-01-23T07:27:05.461Z,101624.66
2023-01-23T07:29:33.166Z,101626.25
2023-01-23T07:32:01.277Z,101633.47
2023-01-23T07:34:28.977Z,101640.97
2023-01-23T07:36:56.585Z,101639.44
2023-01-23T07:39:24.689Z,101636.66
2023-01-23T07:41:52.424Z,101622.72
2023-01-23T07:44:21.630Z,101624.03
2023-01-23T07:46:50.151Z,101626.63
2023-01-23T07:49:18.088Z,101635.84
2023-01-23T07:51:45.708Z,101643.63
2023-01-23T07:54:13.766Z,101637.81
2023-01-23T07:56:41.438Z,101636.19
2023-01-23T07:59:09.048Z,101639.03
2023-01-23T08:01:38.067Z,101631.81
2023-01-23T08:04:06.157Z,101647.13
2023-01-23T08:06:34.540Z,101641.62
2023-01-23T08:09:03.359Z,101642.94
2023-01-23T08:11:34.152Z,101645.69
2023-01-23T08:14:02.256Z,101645.47
2023-01-23T08:16:29.952Z,101631.34
2023-01-23T08:18:58.220Z,101641.06
2023-01-23T08:21:25.819Z,101641.19
2023-01-23T08:23:53.514Z,101638.78
2023-01-23T08:26:24.259Z,101642.12
2023-01-23T08:28:51.876Z,101646.47
2023-01-23T08:31:19.898Z,101656.87
2023-01-23T08:33:47.937Z,101651.44
2023-01-23T08:36:15.591Z,101647.22
2023-01-23T08:38:43.558Z,101644.75
2023-01-23T08:41:14.663Z,101646.66
2023-01-23T08:43:42.493Z,101659.72
2023-01-23T08:46:11.301Z,101648.44
2023-01-23T08:48:39.486Z,101658.28
2023-01-23T08:51:10.262Z,101658.03
2023-01-23T08:53:37.989Z,101666.94
2023-01-23T08:56:17.838Z,101667.75
2023-01-23T08:58:46.724Z,101675.06
2023-01-23T09:01:17.929Z,101667.59
2023-01-23T09:03:45.933Z,101667.59
2023-01-23T09:06:16.765Z,101669.16
2023-01-23T09:08:44.934Z,101672.25
2023-01-23T09:11:14.369Z,101667.91
2023-01-23T09:13:43.487Z,101666.41
2023-01-23T09:16:11.238Z,101669.59
2023-01-23T09:18:38.867Z,101672.31
2023-01-23T09:21:10.315Z,101665.62
2023-01-23T09:23:38.363Z,101673.19
2023-01-23T09:26:11.357Z,101668.75
2023-01-23T09:28:42.094Z,101669.81
2023-01-23T09:31:13.105Z,101672.62
2023-01-23T09:33:41.633Z,101667.78
2023-01-23T09:36:10.090Z,101676.94
2023-01-23T09:38:38.132Z,101674.13
2023-01-23T09:41:19.161Z,101662.62
2023-01-23T09:44:07.430Z,101667.22
2023-01-23T09:46:46.866Z,101664.88
2023-01-23T09:49:38.041Z,101662.50
2023-01-23T09:52:12.131Z,101668.91
2023-01-23T09:54:58.249Z,101661.59
2023-01-23T09:57:33.479Z,101662.47
2023-01-23T10:00:20.920Z,101660.13
2023-01-23T10:02:49.038Z,101655.84
2023-01-23T10:05:18.485Z,101651.25
2023-01-23T10:08:17.694Z,101657.06
2023-01-23T10:10:48.407Z,101656.25
2023-01-23T10:13:19.970Z,101658.22
2023-01-23T10:16:02.965Z,101658.09
2023-01-23T10:18:40.935Z,101662.66
2023-01-23T10:21:22.441Z,101658.34
2023-01-23T10:24:21.889Z,101655.81
2023-01-23T10:26:51.013Z,101668.06
2023-01-23T10:29:28.764Z,101657.50
2023-01-23T10:32:01.443Z,101656.69
2023-01-23T10:34:37.141Z,101658.06
2023-01-23T10:37:20.773Z,101653.25
2023-01-23T10:40:03.986Z,101658.75
2023-01-23T10:42:34.019Z,101662.03
2023-01-23T10:45:01.973Z,101656.09
2023-01-23T10:47:38.792Z,101656.50
2023-01-23T10:50:11.643Z,101658.22
2023-01-23T10:52:44.958Z,101655.88
2023-01-23T10:55:19.781Z,101648.56
2023-01-23T10:57:50.066Z,101651.88
2023-01-23T11:00:24.887Z,101650.28
2023-01-23T11:02:52.700Z,101645.78
2023-01-23T11:05:51.883Z,101650.75
2023-01-23T11:08:36.542Z,101636.34
2023-01-23T11:11:16.889Z,101639.63
2023-01-23T11:13:46.945Z,101635.47
2023-01-23T11:16:17.040Z,101630.69
2023-01-23T11:19:02.895Z,101625.06
2023-01-23T11:21:51.986Z,101626.13
2023-01-23T11:24:38.657Z,101617.44
2023-01-23T11:27:28.350Z,101621.00
2023-01-23T11:30:10.023Z,101623.66
2023-01-23T11:32:51.297Z,101619.69
2023-01-23T11:35:25.344Z,101615.44
2023-01-23T11:37:55.535Z,101613.09
2023-01-23T11:40:23.932Z,101602.78
2023-01-23T11:42:52.718Z,101607.41
2023-01-23T11:45:44.784Z,101610.03
2023-01-23T11:48:32.917Z,101612.69
2023-01-23T11:51:45.997Z,101613.56
2023-01-23T11:54:41.501Z,101610.75
2023-01-23T11:57:33.954Z,101609.50
2023-01-23T12:00:19.055Z,101611.22
2023-01-23T12:02:52.781Z,101610.53
2023-01-23T12:05:26.231Z,101601.19
2023-01-23T12:08:09.868Z,101597.84
2023-01-23T12:11:13.899Z,101601.50
2023-01-23T12:14:04.766Z,101596.94
2023-01-23T12:17:09.162Z,101585.00
2023-01-23T12:20:01.901Z,101586.75
2023-01-23T12:22:48.577Z,101586.00
2023-01-23T12:25:16.418Z,101587.03
2023-01-23T12:27:47.072Z,101588.06
2023-01-23T12:30:28.574Z,101590.88
2023-01-23T12:33:35.044Z,101577.31
2023-01-23T12:36:24.243Z,101582.03
2023-01-23T12:39:01.497Z,101587.41
2023-01-23T12:41:39.146Z,101588.91
2023-01-23T12:44:24.807Z,101588.28
2023-01-23T12:47:04.862Z,101594.91
2023-01-23T12:49:45.987Z,101593.09
2023-01-23T12:52:25.908Z,101589.28
2023-01-23T12:55:04.647Z,101589.41
2023-01-23T12:58:00.130Z,101591.22
2023-01-23T13:00:44.868Z,101597.88
2023-01-23T13:03:44.882Z,101600.28
2023-01-23T13:06:41.086Z,101604.72
2023-01-23T13:09:44.566Z,101595.50
2023-01-23T13:12:31.148Z,101597.53
2023-01-23T13:15:18.899Z,101596.22
2023-01-23T13:18:22.753Z,101597.44
2023-01-23T13:21:17.336Z,101588.81
2023-01-23T13:23:45.969Z,101604.47
2023-01-23T13:26:13.576Z,101600.38
2023-01-23T13:28:48.705Z,101598.69
2023-01-23T13:31:46.340Z,101594.16
2023-01-23T13:34:16.979Z,101591.91
2023-01-23T13:36:46.742Z,101584.50
2023-01-23T13:39:17.401Z,101595.56
2023-01-23T13:41:49.917Z,101591.78
2023-01-23T13:44:41.515Z,101594.09
2023-01-23T14:22:39.483Z,101611.62
2023-01-23T14:25:17.237Z,101609.25
2023-01-23T14:27:54.696Z,101611.78
2023-01-23T14:30:27.124Z,101624.25
2023-01-23T14:32:55.600Z,101617.09
2023-01-23T14:35:31.445Z,101620.72
2023-01-23T14:38:02.480Z,101624.25
2023-01-23T14:40:39.996Z,101620.56
2023-01-23T14:43:24.670Z,101627.31
2023-01-23T14:46:12.468Z,101628.88
2023-01-23T14:48:42.713Z,101624.31
2023-01-23T14:51:24.078Z,101634.81
2023-01-23T14:53:56.011Z,101631.53
2023-01-23T14:56:39.368Z,101632.47
2023-01-23T14:59:27.779Z,101636.66
2023-01-23T15:02:03.311Z,101640.63
2023-01-23T15:04:33.223Z,101642.22
2023-01-23T15:07:02.617Z,101632.56
2023-01-23T15:09:37.002Z,101641.62
2023-01-23T15:12:07.577Z,101644.09
2023-01-23T15:14:40.053Z,101640.56
2023-01-23T15:17:17.476Z,101645.12
2023-01-23T15:19:51.083Z,101645.53
2023-01-23T15:22:25.253Z,101642.72
2023-01-23T15:24:53.124Z,101645.38
2023-01-23T15:27:37.322Z,101650.72
2023-01-23T15:30:35.884Z,101650.44
2023-01-23T15:33:10.325Z,101654.50
2023-01-23T15:35:38.189Z,101649.94
2023-01-23T15:38:08.626Z,101650.78
2023-01-23T15:40:38.729Z,101657.13
2023-01-23T15:43:17.668Z,101651.41
2023-01-23T15:45:45.865Z,101654.37
2023-01-23T15:48:13.758Z,101657.03
2023-01-23T15:50:41.750Z,101656.87
2023-01-23T15:53:12.610Z,101659.28
2023-01-23T15:55:41.028Z,101664.41
2023-01-23T15:58:15.305Z,101666.91
2023-01-23T16:00:43.372Z,101669.31
2023-01-23T16:03:14.576Z,101666.56
2023-01-23T16:05:42.590Z,101672.19
2023-01-23T16:08:25.360Z,101674.09
2023-01-23T16:10:53.448Z,101676.59
2023-01-23T16:13:21.112Z,101678.31
2023-01-23T16:15:49.170Z,101679.56
2023-01-23T16:18:20.205Z,101674.41
2023-01-23T16:20:47.965Z,101682.00
2023-01-23T16:23:20.097Z,101680.63
2023-01-23T16:25:48.372Z,101681.63
2023-01-23T16:28:19.865Z,101682.44
2023-01-23T16:30:49.785Z,101678.47
2023-01-23T16:33:17.981Z,101685.28
2023-01-23T16:35:46.153Z,101682.75
2023-01-23T16:38:26.530Z,101683.84
2023-01-23T16:40:56.709Z,101681.94
2023-01-23T16:43:24.632Z,101689.44
2023-01-23T16:45:56.093Z,101684.09
2023-01-23T16:48:27.477Z,101686.22
2023-01-23T16:51:03.470Z,101696.12
2023-01-23T16:53:34.846Z,101693.00
2023-01-23T16:56:04.220Z,101686.84
2023-01-23T16:58:37.831Z,101695.22
2023-01-23T17:01:15.456Z,101692.62
2023-01-23T17:03:44.921Z,101698.28
2023-01-23T17:06:14.662Z,101696.66
2023-01-23T17:08:42.838Z,101702.06
2023-01-23T17:11:18.835Z,101696.53
2023-01-23T17:13:47.554Z,101703.81
2023-01-23T17:16:26.772Z,101703.75
2023-01-23T17:18:58.992Z,101707.34
2023-01-23T17:21:33.239Z,101704.69
2023-01-23T17:24:01.085Z,101718.94
2023-01-23T17:26:29.377Z,101711.75
2023-01-23T17:29:00.533Z,101708.94
2023-01-23T17:31:29.252Z,101714.63
2023-01-23T17:33:57.337Z,101709.38
2023-01-23T17:36:26.403Z,101715.41
2023-01-23T17:38:59.127Z,101711.53
2023-01-23T17:41:28.660Z,101714.00
2023-01-23T17:43:56.482Z,101724.69
2023-01-23T17:46:27.190Z,101715.94
2023-01-23T17:48:56.198Z,101719.06
2023-01-23T17:51:25.580Z,101719.84
2023-01-23T17:53:53.537Z,101720.22
2023-01-23T17:56:21.699Z,101720.66
2023-01-23T17:58:49.649Z,101724.63
2023-01-23T18:01:23.816Z,101727.47
2023-01-23T18:03:53.246Z,101726.84
2023-01-23T18:06:21.228Z,101730.66
2023-01-23T18:08:49.224Z,101731.28
2023-01-23T18:11:22.256Z,101727.47
2023-01-23T18:13:50.099Z,101731.47
2023-01-23T18:16:31.299Z,101734.47
2023-01-23T18:19:03.747Z,101735.88
2023-01-23T18:21:32.813Z,101738.66
2023-01-23T18:24:00.785Z,101736.84
2023-01-23T18:26:49.137Z,101736.25
2023-01-23T18:29:17.568Z,101739.66
2023-01-23T18:31:50.402Z,101751.81
2023-01-23T18:34:31.169Z,101744.03
2023-01-23T18:37:14.048Z,101754.78
2023-01-23T18:39:49.252Z,101749.81
2023-01-23T18:42:24.326Z,101747.41
2023-01-23T18:45:01.793Z,101754.94
2023-01-23T18:47:29.754Z,101749.97
2023-01-23T18:49:58.399Z,101753.16
2023-01-23T18:52:38.510Z,101754.34
2023-01-23T18:55:28.582Z,101754.53
2023-01-23T18:58:25.868Z,101746.78
2023-01-23T19:01:15.020Z,101759.09
2023-01-23T19:03:44.948Z,101761.50
2023-01-23T19:06:23.363Z,101762.47
2023-01-23T19:08:54.212Z,101764.84
2023-01-23T19:11:46.452Z,101767.56
2023-01-23T19:14:51.147Z,101766.97
2023-01-23T19:17:39.708Z,101754.78
2023-01-23T19:20:26.348Z,101768.22
2023-01-23T19:23:09.745Z,101768.59
2023-01-23T19:25:45.483Z,101770.16
2023-01-23T19:28:15.147Z,101768.38
2023-01-23T19:30:44.114Z,101771.44
2023-01-23T19:33:17.014Z,101774.06
2023-01-23T19:35:46.932Z,101778.75
2023-01-23T19:38:17.605Z,101784.44
2023-01-23T19:40:46.272Z,101780.13
2023-01-23T19:43:16.846Z,101783.69
2023-01-23T19:45:46.024Z,101786.03
2023-01-23T19:48:14.113Z,101787.84
2023-01-23T19:50:42.019Z,101797.41
2023-01-23T19:53:13.353Z,101791.06
2023-01-23T19:55:41.098Z,101793.59
2023-01-23T19:58:10.248Z,101791.44
2023-01-23T20:00:39.332Z,101791.44
2023-01-23T20:03:10.075Z,101799.22
2023-01-23T20:05:37.775Z,101797.38
2023-01-23T20:08:06.348Z,101794.78
2023-01-23T20:10:35.429Z,101801.72
2023-01-23T20:13:03.474Z,101794.47
2023-01-23T20:15:31.430Z,101791.78
2023-01-23T20:17:59.598Z,101806.09
2023-01-23T20:20:29.200Z,101804.56
2023-01-23T20:22:56.829Z,101804.31
2023-01-23T20:25:25.035Z,101806.53
2023-01-23T20:27:52.856Z,101812.56
2023-01-23T20:30:21.993Z,101808.28
2023-01-23T20:32:50.680Z,101810.88
2023-01-23T20:35:18.587Z,101803.94
2023-01-23T20:37:46.292Z,101806.56
2023-01-23T20:40:14.937Z,101820.88
2023-01-23T20:42:42.676Z,101817.50
2023-01-23T20:45:10.558Z,101815.72
2023-01-23T20:47:40.896Z,101816.28
2023-01-23T20:50:09.787Z,101819.78
2023-01-23T20:52:56.735Z,101826.56
2023-01-23T20:55:25.166Z,101824.59
2023-01-23T20:58:12.008Z,101825.59
2023-01-23T21:00:40.254Z,101825.94
2023-01-23T21:03:07.967Z,101831.38
2023-01-23T21:05:35.870Z,101835.94
2023-01-23T21:08:04.258Z,101844.84
2023-01-23T21:10:32.234Z,101852.25
2023-01-23T21:13:00.067Z,101850.31
2023-01-23T21:15:28.133Z,101864.06
2023-01-23T21:17:55.784Z,101868.19
2023-01-23T21:20:23.724Z,101867.03
2023-01-23T21:22:51.925Z,101867.50
2023-01-23T21:25:19.974Z,101865.31
2023-01-23T21:27:48.097Z,101872.78
2023-01-23T21:30:16.478Z,101865.47
2023-01-23T21:32:44.741Z,101869.66
2023-01-23T21:35:12.362Z,101865.47
2023-01-23T21:37:42.417Z,101863.44
2023-01-23T21:40:10.677Z,101874.25
2023-01-23T21:42:38.500Z,101869.25
2023-01-23T21:45:06.812Z,101877.06
2023-01-23T21:47:34.379Z,101877.75
2023-01-23T21:50:02.734Z,101877.00
2023-01-23T21:52:31.106Z,101875.16
2023-01-23T21:54:58.709Z,101873.47
2023-01-23T21:57:26.315Z,101871.03
2023-01-23T22:00:13.890Z,101867.22
2023-01-23T22:02:41.938Z,101874.25
2023-01-23T22:05:10.052Z,101883.84
2023-01-23T22:07:37.804Z,101886.59
2023-01-23T22:10:06.399Z,101880.72
2023-01-23T22:12:36.764Z,101886.34
2023-01-23T22:15:05.262Z,101890.84
2023-01-23T22:17:34.133Z,101890.59
2023-01-23T22:20:02.235Z,101889.84
2023-01-23T22:22:29.862Z,101897.44
2023-01-23T22:24:57.825Z,101896.31
2023-01-23T22:27:25.552Z,101895.91
2023-01-23T22:29:53.398Z,101899.88
2023-01-23T22:32:21.658Z,101901.75
2023-01-23T22:34:49.404Z,101903.31
2023-01-23T22:37:21.445Z,101904.50
2023-01-23T22:39:50.224Z,101902.19
2023-01-23T22:42:19.198Z,101899.53
2023-01-23T22:44:46.796Z,101902.66
2023-01-23T22:47:14.814Z,101903.16
2023-01-23T22:49:44.008Z,101901.28
2023-01-23T22:52:11.552Z,101910.41
2023-01-23T22:54:39.494Z,101917.06
2023-01-23T22:57:07.219Z,101915.44
2023-01-23T22:59:34.826Z,101910.16
2023-01-23T23:02:02.856Z,101910.56
2023-01-23T23:04:30.545Z,101915.53
2023-01-23T23:06:58.231Z,101917.91
2023-01-23T23:09:26.287Z,101921.37
2023-01-23T23:11:54.279Z,101921.09
2023-01-23T23:14:21.897Z,101926.97
2023-01-23T23:16:49.928Z,101924.38
2023-01-23T23:19:17.606Z,101929.81
2023-01-23T23:21:45.596Z,101925.13
2023-01-23T23:24:14.117Z,101921.63
2023-01-23T23:26:42.056Z,101927.34
2023-01-23T23:29:09.777Z,101925.47
2023-01-23T23:31:37.939Z,101921.87
2023-01-23T23:34:05.666Z,101931.25
2023-01-23T23:36:33.707Z,101930.28
2023-01-23T23:39:01.863Z,101938.63
2023-01-23T23:41:29.585Z,101934.38
2023-01-23T23:43:57.328Z,101935.94
2023-01-23T23:46:25.466Z,101934.06
2023-01-23T23:48:53.313Z,101931.84
2023-01-23T23:51:22.892Z,101929.22
2023-01-23T23:53:50.906Z,101933.62
2023-01-23T23:56:29.039Z,101930.59
2023-01-23T23:58:57.113Z,101929.97
